createdAt,value
2022-12-07T00:00:25.701Z,3.49
2022-12-07T00:01:15.683Z,3.45
2022-12-07T00:02:05.691Z,3.46
2022-12-07T00:02:55.716Z,3.42
2022-12-07T00:03:45.755Z,3.42
2022-12-07T00:04:35.655Z,3.42
2022-12-07T00:05:25.638Z,3.37
2022-12-07T00:06:15.624Z,3.35
2022-12-07T00:07:05.612Z,3.37
2022-12-07T00:07:55.650Z,3.35
2022-12-07T00:08:45.590Z,3.35
2022-12-07T00:09:35.647Z,3.35
2022-12-07T00:10:25.584Z,3.34
2022-12-07T00:11:15.589Z,3.35
2022-12-07T00:12:05.570Z,3.35
2022-12-07T00:12:55.560Z,3.35
2022-12-07T00:13:45.549Z,3.35
2022-12-07T00:14:35.550Z,3.35
2022-12-07T00:15:25.569Z,3.37
2022-12-07T00:16:15.579Z,3.37
2022-12-07T00:17:05.503Z,3.37
2022-12-07T00:17:55.509Z,3.37
2022-12-07T00:18:45.515Z,3.35
2022-12-07T00:19:35.496Z,3.35
2022-12-07T00:20:25.466Z,3.34
2022-12-07T00:21:15.488Z,3.34
2022-12-07T00:22:05.439Z,3.34
2022-12-07T00:22:55.462Z,3.33
2022-12-07T00:23:45.432Z,3.33
2022-12-07T00:24:35.430Z,3.34
2022-12-07T00:25:25.429Z,3.34
2022-12-07T00:26:15.416Z,3.33
2022-12-07T00:27:05.629Z,3.34
2022-12-07T00:27:55.387Z,3.35
2022-12-07T00:28:45.371Z,3.35
2022-12-07T00:29:35.393Z,3.35
2022-12-07T00:30:25.380Z,3.35
2022-12-07T00:31:15.471Z,3.37
2022-12-07T00:32:05.386Z,3.34
2022-12-07T00:32:55.564Z,3.34
2022-12-07T00:33:45.338Z,3.35
2022-12-07T00:34:35.324Z,3.34
2022-12-07T00:35:25.316Z,3.34
2022-12-07T00:36:15.297Z,3.35
2022-12-07T00:37:05.275Z,3.34
2022-12-07T00:37:55.297Z,3.31
2022-12-07T00:38:45.527Z,3.33
2022-12-07T00:39:35.255Z,3.33
2022-12-07T00:40:25.246Z,3.33
2022-12-07T00:41:15.262Z,3.31
2022-12-07T00:42:05.251Z,3.33
2022-12-07T00:42:55.227Z,3.30
2022-12-07T00:43:45.386Z,3.30
2022-12-07T00:44:35.445Z,3.33
2022-12-07T00:45:25.200Z,3.31
2022-12-07T00:46:15.252Z,3.30
2022-12-07T00:47:05.191Z,3.31
2022-12-07T00:47:55.222Z,3.31
2022-12-07T00:48:45.165Z,3.30
2022-12-07T00:49:35.173Z,3.33
2022-12-07T00:50:25.260Z,3.31
2022-12-07T00:51:15.142Z,3.30
2022-12-07T00:52:05.146Z,3.30
2022-12-07T00:52:55.144Z,3.31
2022-12-07T00:53:45.105Z,3.33
2022-12-07T00:54:35.118Z,3.30
2022-12-07T00:55:25.084Z,3.30
2022-12-07T00:56:15.120Z,3.31
2022-12-07T00:57:05.090Z,3.31
2022-12-07T00:57:55.061Z,3.31
2022-12-07T00:58:45.045Z,3.30
2022-12-07T00:59:35.059Z,3.30
2022-12-07T01:00:25.048Z,3.28
2022-12-07T01:01:15.119Z,3.30
2022-12-07T01:02:06.211Z,3.30
2022-12-07T01:02:55.059Z,3.28
2022-12-07T01:03:45.077Z,3.26
2022-12-07T01:04:34.999Z,3.23
2022-12-07T01:05:24.997Z,3.25
2022-12-07T01:06:14.992Z,3.26
2022-12-07T01:07:04.977Z,3.25
2022-12-07T01:07:55.129Z,3.25
2022-12-07T01:08:44.969Z,3.23
2022-12-07T01:09:34.939Z,3.22
2022-12-07T01:10:24.949Z,3.20
2022-12-07T01:11:14.943Z,3.22
2022-12-07T01:12:04.905Z,3.20
2022-12-07T01:12:54.909Z,3.20
2022-12-07T01:13:44.889Z,3.20
2022-12-07T01:14:34.910Z,3.19
2022-12-07T01:15:24.887Z,3.22
2022-12-07T01:16:14.935Z,3.22
2022-12-07T01:17:04.926Z,3.23
2022-12-07T01:17:54.848Z,3.23
2022-12-07T01:18:44.874Z,3.23
2022-12-07T01:19:34.839Z,3.22
2022-12-07T01:20:24.858Z,3.22
2022-12-07T01:21:14.816Z,3.23
2022-12-07T01:22:04.807Z,3.23
2022-12-07T01:22:54.867Z,3.25
2022-12-07T01:23:44.777Z,3.23
2022-12-07T01:24:34.776Z,3.23
2022-12-07T01:25:24.766Z,3.23
2022-12-07T01:26:14.792Z,3.23
2022-12-07T01:27:04.744Z,3.25
2022-12-07T01:27:54.752Z,3.23
2022-12-07T01:28:44.716Z,3.23
2022-12-07T01:29:34.712Z,3.23
2022-12-07T01:30:24.741Z,3.22
2022-12-07T01:31:14.770Z,3.23
2022-12-07T01:32:04.744Z,3.22
2022-12-07T01:32:54.699Z,3.22
2022-12-07T01:33:44.667Z,3.22
2022-12-07T01:34:34.654Z,3.23
2022-12-07T01:35:24.645Z,3.23
2022-12-07T01:36:14.645Z,3.25
2022-12-07T01:37:04.625Z,3.25
2022-12-07T01:37:54.676Z,3.23
2022-12-07T01:38:44.625Z,3.23
2022-12-07T01:39:34.625Z,3.23
2022-12-07T01:40:24.615Z,3.23
2022-12-07T01:41:14.584Z,3.23
2022-12-07T01:42:04.584Z,3.23
2022-12-07T01:42:54.563Z,3.25
2022-12-07T01:43:44.573Z,3.23
2022-12-07T01:44:34.549Z,3.23
2022-12-07T01:45:24.555Z,3.25
2022-12-07T01:46:14.593Z,3.25
2022-12-07T01:47:04.542Z,3.25
2022-12-07T01:47:54.540Z,3.25
2022-12-07T01:48:44.533Z,3.23
2022-12-07T01:49:34.497Z,3.23
2022-12-07T01:50:24.489Z,3.22
2022-12-07T01:51:14.500Z,3.20
2022-12-07T01:52:04.476Z,3.20
2022-12-07T01:52:54.452Z,3.20
2022-12-07T01:53:44.491Z,3.22
2022-12-07T01:54:34.438Z,3.22
2022-12-07T01:55:24.432Z,3.22
2022-12-07T01:56:14.459Z,3.20
2022-12-07T01:57:04.430Z,3.20
2022-12-07T01:57:54.411Z,3.20
2022-12-07T01:58:44.393Z,3.20
2022-12-07T01:59:34.420Z,3.20
2022-12-07T02:00:24.381Z,3.20
2022-12-07T02:01:14.440Z,3.17
2022-12-07T02:02:04.379Z,3.17
2022-12-07T02:02:54.469Z,3.15
2022-12-07T02:03:44.334Z,3.19
2022-12-07T02:04:34.340Z,3.17
2022-12-07T02:05:24.358Z,3.17
2022-12-07T02:06:14.325Z,3.17
2022-12-07T02:07:04.314Z,3.17
2022-12-07T02:07:54.331Z,3.17
2022-12-07T02:08:44.278Z,3.17
2022-12-07T02:09:34.290Z,3.17
2022-12-07T02:10:24.310Z,3.13
2022-12-07T02:11:14.247Z,3.12
2022-12-07T02:12:04.271Z,3.12
2022-12-07T02:12:54.244Z,3.12
2022-12-07T02:13:44.236Z,3.13
2022-12-07T02:14:34.237Z,3.13
2022-12-07T02:15:24.207Z,3.12
2022-12-07T02:16:14.278Z,3.13
2022-12-07T02:17:04.205Z,3.12
2022-12-07T02:17:54.176Z,3.15
2022-12-07T02:18:44.229Z,3.16
2022-12-07T02:19:34.168Z,3.13
2022-12-07T02:20:24.187Z,3.15
2022-12-07T02:21:14.146Z,3.15
2022-12-07T02:22:04.147Z,3.13
2022-12-07T02:22:54.125Z,3.13
2022-12-07T02:23:44.144Z,3.13
2022-12-07T02:24:34.144Z,3.15
2022-12-07T02:25:24.095Z,3.15
2022-12-07T02:26:14.103Z,3.15
2022-12-07T02:27:04.083Z,3.15
2022-12-07T02:27:54.068Z,3.15
2022-12-07T02:28:44.075Z,3.15
2022-12-07T02:29:34.047Z,3.13
2022-12-07T02:30:24.476Z,3.16
2022-12-07T02:31:14.131Z,3.16
2022-12-07T02:32:04.025Z,3.13
2022-12-07T02:32:54.031Z,3.17
2022-12-07T02:33:44.027Z,3.16
2022-12-07T02:34:34.018Z,3.16
2022-12-07T02:35:24.004Z,3.15
2022-12-07T02:36:14.008Z,3.16
2022-12-07T02:37:03.992Z,3.16
2022-12-07T02:37:53.959Z,3.13
2022-12-07T02:38:43.985Z,3.15
2022-12-07T02:39:33.951Z,3.17
2022-12-07T02:40:23.953Z,3.15
2022-12-07T02:41:13.957Z,3.16
2022-12-07T02:42:03.943Z,3.16
2022-12-07T02:42:53.919Z,3.15
2022-12-07T02:43:43.952Z,3.16
2022-12-07T02:44:33.891Z,3.15
2022-12-07T02:45:23.901Z,3.15
2022-12-07T02:46:13.922Z,3.13
2022-12-07T02:47:03.860Z,3.16
2022-12-07T02:47:53.861Z,3.15
2022-12-07T02:48:43.866Z,3.15
2022-12-07T02:49:33.897Z,3.16
2022-12-07T02:50:23.840Z,3.16
2022-12-07T02:51:13.830Z,3.15
2022-12-07T02:52:03.829Z,3.13
2022-12-07T02:52:53.798Z,3.15
2022-12-07T02:53:43.809Z,3.13
2022-12-07T02:54:33.780Z,3.12
2022-12-07T02:55:23.810Z,3.10
2022-12-07T02:56:13.775Z,3.12
2022-12-07T02:57:03.763Z,3.12
2022-12-07T02:57:53.758Z,3.10
2022-12-07T02:58:43.743Z,3.08
2022-12-07T02:59:33.732Z,3.08
2022-12-07T03:00:23.948Z,3.07
2022-12-07T03:01:13.811Z,3.08
2022-12-07T03:02:03.778Z,3.08
2022-12-07T03:02:53.744Z,3.08
2022-12-07T03:03:43.678Z,3.07
2022-12-07T03:04:33.687Z,3.10
2022-12-07T03:05:23.686Z,3.07
2022-12-07T03:06:13.959Z,3.07
2022-12-07T03:07:03.650Z,3.07
2022-12-07T03:07:53.729Z,3.07
2022-12-07T03:08:43.625Z,3.08
2022-12-07T03:09:33.626Z,3.08
2022-12-07T03:10:23.607Z,3.07
2022-12-07T03:11:16.410Z,3.07
2022-12-07T03:12:04.625Z,3.05
2022-12-07T03:12:53.576Z,3.05
2022-12-07T03:13:43.576Z,3.05
2022-12-07T03:14:33.555Z,3.05
2022-12-07T03:15:23.589Z,3.07
2022-12-07T03:16:13.597Z,3.07
2022-12-07T03:17:03.564Z,3.07
2022-12-07T03:17:53.552Z,3.08
2022-12-07T03:18:43.522Z,3.07
2022-12-07T03:19:33.514Z,3.05
2022-12-07T03:20:23.515Z,3.04
2022-12-07T03:21:13.513Z,3.04
2022-12-07T03:22:03.526Z,3.02
2022-12-07T03:22:53.475Z,3.02
2022-12-07T03:23:43.475Z,3.02
2022-12-07T03:24:33.484Z,3.02
2022-12-07T03:25:23.444Z,3.02
2022-12-07T03:26:13.440Z,3.02
2022-12-07T03:27:03.423Z,3.01
2022-12-07T03:27:53.481Z,3.01
2022-12-07T03:28:43.411Z,2.99
2022-12-07T03:29:33.403Z,2.99
2022-12-07T03:30:23.409Z,2.98
2022-12-07T03:31:13.450Z,2.98
2022-12-07T03:32:03.380Z,2.98
2022-12-07T03:32:53.352Z,2.98
2022-12-07T03:33:43.391Z,2.98
2022-12-07T03:34:33.369Z,2.98
2022-12-07T03:35:23.342Z,2.97
2022-12-07T03:36:13.321Z,2.97
2022-12-07T03:37:03.311Z,2.97
2022-12-07T03:37:53.318Z,2.98
2022-12-07T03:38:43.311Z,2.97
2022-12-07T03:39:33.320Z,2.98
2022-12-07T03:40:23.290Z,2.98
2022-12-07T03:41:13.271Z,2.97
2022-12-07T03:42:03.282Z,2.98
2022-12-07T03:42:53.258Z,2.97
2022-12-07T03:43:43.263Z,2.97
2022-12-07T03:44:33.229Z,2.98
2022-12-07T03:45:23.251Z,2.97
2022-12-07T03:46:13.297Z,2.97
2022-12-07T03:47:03.269Z,2.95
2022-12-07T03:47:53.218Z,2.98
2022-12-07T03:48:43.197Z,2.95
2022-12-07T03:49:33.178Z,2.95
2022-12-07T03:50:23.190Z,2.95
2022-12-07T03:51:13.221Z,2.95
2022-12-07T03:52:03.165Z,2.94
2022-12-07T03:52:53.138Z,2.90
2022-12-07T03:53:43.148Z,2.90
2022-12-07T03:54:33.169Z,2.89
2022-12-07T03:55:23.117Z,2.90
2022-12-07T03:56:13.125Z,2.89
2022-12-07T03:57:03.327Z,2.90
2022-12-07T03:57:53.089Z,2.89
2022-12-07T03:58:43.076Z,2.87
2022-12-07T03:59:33.088Z,2.86
2022-12-07T04:00:23.055Z,2.83
2022-12-07T04:01:13.049Z,2.80
2022-12-07T04:02:03.111Z,2.80
2022-12-07T04:02:53.164Z,2.79
2022-12-07T04:03:43.043Z,2.81
2022-12-07T04:04:33.010Z,2.77
2022-12-07T04:05:23.009Z,2.79
2022-12-07T04:06:13.001Z,2.80
2022-12-07T04:07:02.984Z,2.79
2022-12-07T04:07:53.057Z,2.80
2022-12-07T04:08:43.022Z,2.79
2022-12-07T04:09:32.973Z,2.80
2022-12-07T04:10:23.185Z,2.79
2022-12-07T04:11:12.955Z,2.79
2022-12-07T04:12:02.950Z,2.80
2022-12-07T04:12:52.923Z,2.77
2022-12-07T04:13:42.933Z,2.79
2022-12-07T04:14:32.952Z,2.77
2022-12-07T04:15:22.903Z,2.77
2022-12-07T04:16:13.010Z,2.79
2022-12-07T04:17:02.904Z,2.77
2022-12-07T04:17:52.877Z,2.79
2022-12-07T04:18:42.872Z,2.79
2022-12-07T04:19:32.852Z,2.77
2022-12-07T04:20:22.853Z,2.79
2022-12-07T04:21:12.834Z,2.79
2022-12-07T04:22:03.062Z,2.79
2022-12-07T04:22:52.819Z,2.80
2022-12-07T04:23:42.807Z,2.79
2022-12-07T04:24:32.811Z,2.76
2022-12-07T04:25:22.799Z,2.79
2022-12-07T04:26:12.781Z,2.77
2022-12-07T04:27:02.803Z,2.79
2022-12-07T04:27:52.779Z,2.79
2022-12-07T04:28:42.755Z,2.80
2022-12-07T04:29:32.751Z,2.79
2022-12-07T04:30:22.782Z,2.79
2022-12-07T04:31:13.278Z,2.79
2022-12-07T04:32:02.758Z,2.79
2022-12-07T04:32:52.727Z,2.79
2022-12-07T04:33:42.732Z,2.77
2022-12-07T04:34:32.697Z,2.77
2022-12-07T04:35:22.702Z,2.76
2022-12-07T04:36:12.679Z,2.74
2022-12-07T04:37:02.663Z,2.76
2022-12-07T04:37:52.659Z,2.73
2022-12-07T04:38:42.689Z,2.73
2022-12-07T04:39:32.637Z,2.71
2022-12-07T04:40:22.617Z,2.71
2022-12-07T04:41:12.619Z,2.71
2022-12-07T04:42:02.626Z,2.71
2022-12-07T04:42:52.596Z,2.69
2022-12-07T04:43:42.585Z,2.69
2022-12-07T04:44:32.600Z,2.66
2022-12-07T04:45:22.585Z,2.68
2022-12-07T04:46:12.630Z,2.66
2022-12-07T04:47:02.609Z,2.66
2022-12-07T04:47:52.569Z,2.66
2022-12-07T04:48:42.569Z,2.65
2022-12-07T04:49:32.542Z,2.65
2022-12-07T04:50:22.567Z,2.63
2022-12-07T04:51:12.510Z,2.63
2022-12-07T04:52:02.499Z,2.63
2022-12-07T04:52:52.507Z,2.62
2022-12-07T04:53:42.485Z,2.58
2022-12-07T04:54:32.485Z,2.59
2022-12-07T04:55:22.494Z,2.58
2022-12-07T04:56:12.501Z,2.58
2022-12-07T04:57:02.447Z,2.56
2022-12-07T04:57:52.443Z,2.55
2022-12-07T04:58:42.436Z,2.55
2022-12-07T04:59:32.437Z,2.51
2022-12-07T05:00:22.395Z,2.51
2022-12-07T05:01:12.455Z,2.50
2022-12-07T05:02:02.477Z,2.48
2022-12-07T05:02:52.376Z,2.48
2022-12-07T05:03:42.366Z,2.45
2022-12-07T05:04:32.381Z,2.45
2022-12-07T05:05:22.363Z,2.44
2022-12-07T05:06:13.759Z,2.43
2022-12-07T05:07:02.324Z,2.40
2022-12-07T05:07:52.412Z,2.40
2022-12-07T05:08:42.332Z,2.38
2022-12-07T05:09:32.303Z,2.37
2022-12-07T05:10:22.304Z,2.37
2022-12-07T05:11:12.303Z,2.33
2022-12-07T05:12:02.297Z,2.29
2022-12-07T05:12:52.310Z,2.29
2022-12-07T05:13:42.262Z,2.26
2022-12-07T05:14:32.274Z,2.25
2022-12-07T05:15:22.241Z,2.23
2022-12-07T05:16:12.276Z,2.22
2022-12-07T05:17:02.240Z,2.20
2022-12-07T05:17:52.212Z,2.18
2022-12-07T05:18:42.224Z,2.14
2022-12-07T05:19:32.214Z,2.12
2022-12-07T05:20:22.210Z,2.09
2022-12-07T05:21:12.194Z,2.08
2022-12-07T05:22:02.193Z,2.07
2022-12-07T05:22:52.193Z,2.04
2022-12-07T05:23:42.158Z,2.04
2022-12-07T05:24:32.139Z,2.00
2022-12-07T05:25:22.139Z,2.00
2022-12-07T05:26:12.137Z,1.95
2022-12-07T05:27:02.120Z,1.92
2022-12-07T05:27:52.100Z,1.90
2022-12-07T05:28:42.109Z,1.89
2022-12-07T05:29:32.106Z,1.89
2022-12-07T05:30:22.086Z,1.85
2022-12-07T05:31:12.104Z,1.83
2022-12-07T05:32:02.116Z,1.81
2022-12-07T05:32:52.047Z,1.81
2022-12-07T05:33:42.037Z,1.81
2022-12-07T05:34:32.097Z,1.79
2022-12-07T05:35:22.049Z,1.77
2022-12-07T05:36:12.020Z,1.75
2022-12-07T05:37:02.016Z,1.75
2022-12-07T05:37:52.005Z,1.79
2022-12-07T05:38:41.987Z,1.79
2022-12-07T05:39:32.006Z,1.79
2022-12-07T05:40:21.985Z,1.79
2022-12-07T05:41:11.981Z,1.75
2022-12-07T05:42:01.964Z,1.75
2022-12-07T05:42:51.969Z,1.71
2022-12-07T05:43:41.928Z,1.71
2022-12-07T05:44:31.944Z,1.70
2022-12-07T05:45:22.060Z,1.67
2022-12-07T05:46:11.945Z,1.68
2022-12-07T05:47:01.897Z,1.67
2022-12-07T05:47:51.895Z,1.64
2022-12-07T05:48:41.914Z,1.65
2022-12-07T05:49:31.884Z,1.65
2022-12-07T05:50:21.866Z,1.67
2022-12-07T05:51:11.923Z,1.67
2022-12-07T05:52:01.844Z,1.67
2022-12-07T05:52:51.851Z,1.67
2022-12-07T05:53:41.834Z,1.64
2022-12-07T05:54:31.816Z,1.61
2022-12-07T05:55:21.815Z,1.57
2022-12-07T05:56:11.811Z,1.56
2022-12-07T05:57:01.832Z,1.56
2022-12-07T05:57:51.787Z,1.53
2022-12-07T05:58:41.763Z,1.50
2022-12-07T05:59:31.783Z,1.50
2022-12-07T06:00:21.753Z,1.47
2022-12-07T06:01:11.752Z,1.46
2022-12-07T06:02:01.788Z,1.43
2022-12-07T06:02:51.833Z,1.43
2022-12-07T06:03:41.730Z,1.39
2022-12-07T06:04:31.721Z,1.38
2022-12-07T06:05:21.730Z,1.35
2022-12-07T06:06:11.792Z,1.35
2022-12-07T06:07:01.699Z,1.34
2022-12-07T06:07:51.739Z,1.31
2022-12-07T06:08:41.662Z,1.29
2022-12-07T06:09:31.650Z,1.29
2022-12-07T06:10:21.642Z,1.29
2022-12-07T06:11:11.860Z,1.28
2022-12-07T06:12:01.640Z,1.28
2022-12-07T06:12:51.846Z,1.26
2022-12-07T06:13:46.953Z,1.26
2022-12-07T06:14:32.610Z,1.26
2022-12-07T06:15:21.588Z,1.25
2022-12-07T06:16:11.653Z,1.24
2022-12-07T06:17:01.675Z,1.21
2022-12-07T06:17:51.570Z,1.24
2022-12-07T06:18:41.547Z,1.24
2022-12-07T06:19:31.547Z,1.21
2022-12-07T06:20:21.524Z,1.24
2022-12-07T06:21:11.530Z,1.16
2022-12-07T06:22:01.549Z,1.13
2022-12-07T06:22:51.581Z,1.11
2022-12-07T06:23:41.512Z,1.11
2022-12-07T06:24:31.486Z,1.10
2022-12-07T06:25:21.519Z,1.10
2022-12-07T06:26:11.485Z,1.08
2022-12-07T06:27:01.456Z,1.04
2022-12-07T06:27:51.456Z,0.99
2022-12-07T06:28:41.466Z,0.93
2022-12-07T06:29:31.435Z,0.92
2022-12-07T06:30:21.435Z,0.92
2022-12-07T06:31:14.152Z,0.90
2022-12-07T06:32:01.471Z,0.88
2022-12-07T06:32:51.426Z,0.89
2022-12-07T06:33:41.409Z,0.86
2022-12-07T06:34:31.376Z,0.86
2022-12-07T06:35:21.367Z,0.84
2022-12-07T06:36:11.363Z,0.82
2022-12-07T06:37:01.366Z,0.81
2022-12-07T06:37:51.334Z,0.80
2022-12-07T06:38:41.537Z,0.75
2022-12-07T06:39:31.343Z,0.75
2022-12-07T06:40:21.323Z,0.75
2022-12-07T06:41:11.314Z,0.74
2022-12-07T06:42:01.296Z,0.71
2022-12-07T06:42:51.304Z,0.70
2022-12-07T06:43:41.285Z,0.64
2022-12-07T06:44:31.311Z,0.63
2022-12-07T06:45:21.262Z,0.60
2022-12-07T06:46:11.371Z,0.59
2022-12-07T06:47:38.840Z,0.56
2022-12-07T06:47:52.256Z,0.59
2022-12-07T06:48:41.248Z,0.57
2022-12-07T06:49:31.218Z,0.57
2022-12-07T06:50:21.440Z,0.56
2022-12-07T06:51:11.202Z,0.53
2022-12-07T06:52:01.190Z,0.52
2022-12-07T06:52:51.198Z,0.53
2022-12-07T06:53:41.162Z,0.53
2022-12-07T06:54:31.198Z,0.56
2022-12-07T06:55:21.190Z,0.57
2022-12-07T06:56:11.416Z,0.56
2022-12-07T06:57:01.134Z,0.57
2022-12-07T06:57:51.156Z,0.56
2022-12-07T06:58:41.109Z,0.56
2022-12-07T06:59:31.120Z,0.56
2022-12-07T07:00:22.414Z,0.53
2022-12-07T07:01:11.120Z,0.52
2022-12-07T07:02:01.339Z,0.56
2022-12-07T07:02:51.168Z,0.53
2022-12-07T07:03:41.077Z,0.53
2022-12-07T07:04:31.047Z,0.56
2022-12-07T07:05:21.063Z,0.52
2022-12-07T07:06:11.038Z,0.53
2022-12-07T07:07:01.040Z,0.56
2022-12-07T07:08:20.977Z,0.57
2022-12-07T07:08:42.037Z,0.60
2022-12-07T07:09:31.000Z,0.60
2022-12-07T07:10:20.976Z,0.63
2022-12-07T07:11:10.996Z,0.63
2022-12-07T07:12:00.987Z,0.63
2022-12-07T07:12:55.769Z,0.63
2022-12-07T07:13:41.983Z,0.67
2022-12-07T07:14:30.952Z,0.68
2022-12-07T07:15:20.944Z,0.71
2022-12-07T07:16:10.972Z,0.70
2022-12-07T07:17:00.956Z,0.70
2022-12-07T07:17:50.922Z,0.72
2022-12-07T07:18:40.942Z,0.75
2022-12-07T07:19:31.126Z,0.75
2022-12-07T07:20:20.882Z,0.78
2022-12-07T07:21:10.865Z,0.78
2022-12-07T07:22:00.865Z,0.80
2022-12-07T07:22:50.854Z,0.81
2022-12-07T07:23:40.844Z,0.81
2022-12-07T07:24:30.941Z,0.82
2022-12-07T07:25:20.817Z,0.84
2022-12-07T07:26:10.834Z,0.86
2022-12-07T07:27:00.799Z,0.89
2022-12-07T07:27:50.803Z,0.89
2022-12-07T07:28:40.822Z,0.92
2022-12-07T07:29:30.775Z,0.93
2022-12-07T07:30:20.795Z,0.93
2022-12-07T07:31:10.833Z,0.95
2022-12-07T07:32:06.479Z,0.98
2022-12-07T07:32:51.762Z,0.98
2022-12-07T07:33:40.740Z,0.99
2022-12-07T07:34:30.778Z,0.99
2022-12-07T07:35:20.730Z,1.00
2022-12-07T07:36:10.710Z,1.02
2022-12-07T07:37:00.710Z,1.04
2022-12-07T07:37:50.700Z,1.06
2022-12-07T07:38:40.671Z,1.07
2022-12-07T07:39:30.682Z,1.07
2022-12-07T07:40:20.881Z,1.08
2022-12-07T07:41:10.658Z,1.10
2022-12-07T07:42:00.640Z,1.13
2022-12-07T07:42:50.638Z,1.13
2022-12-07T07:43:40.629Z,1.14
2022-12-07T07:44:35.136Z,1.14
2022-12-07T07:45:21.822Z,1.14
2022-12-07T07:46:10.644Z,1.17
2022-12-07T07:47:00.588Z,1.18
2022-12-07T07:47:50.585Z,1.18
2022-12-07T07:48:40.559Z,1.18
2022-12-07T07:49:30.581Z,1.21
2022-12-07T07:50:20.558Z,1.21
2022-12-07T07:51:10.816Z,1.24
2022-12-07T07:52:00.537Z,1.25
2022-12-07T07:52:50.525Z,1.28
2022-12-07T07:53:40.513Z,1.28
2022-12-07T07:54:30.525Z,1.29
2022-12-07T07:55:20.515Z,1.29
2022-12-07T07:56:10.507Z,1.31
2022-12-07T07:57:00.525Z,1.32
2022-12-07T07:57:54.780Z,1.34
2022-12-07T07:58:40.460Z,1.34
2022-12-07T07:59:30.457Z,1.35
2022-12-07T08:00:20.445Z,1.36
2022-12-07T08:01:10.479Z,1.38
2022-12-07T08:02:00.476Z,1.42
2022-12-07T08:02:50.665Z,1.43
2022-12-07T08:03:40.417Z,1.43
2022-12-07T08:04:30.446Z,1.43
2022-12-07T08:05:20.429Z,1.43
2022-12-07T08:06:10.386Z,1.43
2022-12-07T08:07:00.385Z,1.46
2022-12-07T08:07:50.393Z,1.47
2022-12-07T08:08:40.383Z,1.47
2022-12-07T08:09:30.354Z,1.49
2022-12-07T08:10:20.354Z,1.52
2022-12-07T08:11:10.342Z,1.52
2022-12-07T08:12:00.321Z,1.53
2022-12-07T08:12:50.304Z,1.53
2022-12-07T08:13:40.292Z,1.54
2022-12-07T08:14:30.333Z,1.56
2022-12-07T08:15:20.310Z,1.57
2022-12-07T08:16:10.399Z,1.57
2022-12-07T08:17:00.253Z,1.56
2022-12-07T08:17:50.261Z,1.61
2022-12-07T08:18:40.258Z,1.64
2022-12-07T08:19:30.238Z,1.65
2022-12-07T08:20:20.261Z,1.68
2022-12-07T08:21:10.202Z,1.70
2022-12-07T08:22:00.204Z,1.72
2022-12-07T08:22:50.201Z,1.72
2022-12-07T08:23:40.324Z,1.75
2022-12-07T08:24:30.169Z,1.77
2022-12-07T08:25:20.193Z,1.77
2022-12-07T08:26:10.212Z,1.77
2022-12-07T08:27:00.159Z,1.82
2022-12-07T08:27:50.129Z,1.81
2022-12-07T08:28:40.135Z,1.81
2022-12-07T08:29:30.133Z,1.82
2022-12-07T08:30:20.129Z,1.79
2022-12-07T08:31:10.163Z,1.82
2022-12-07T08:32:04.085Z,1.82
2022-12-07T08:32:51.087Z,1.83
2022-12-07T08:33:41.561Z,1.83
2022-12-07T08:34:30.096Z,1.85
2022-12-07T08:35:20.056Z,1.88
2022-12-07T08:36:10.048Z,1.88
2022-12-07T08:37:00.070Z,1.90
2022-12-07T08:37:50.288Z,1.92
2022-12-07T08:38:40.015Z,1.95
2022-12-07T08:39:31.850Z,1.95
2022-12-07T08:40:20.021Z,1.95
2022-12-07T08:41:09.987Z,1.95
2022-12-07T08:42:00.055Z,1.98
2022-12-07T08:42:49.966Z,1.98
2022-12-07T08:43:40.184Z,2.02
2022-12-07T08:44:29.946Z,2.02
2022-12-07T08:45:26.317Z,2.01
2022-12-07T08:46:11.001Z,2.02
2022-12-07T08:46:59.938Z,2.04
2022-12-07T08:47:49.914Z,2.04
2022-12-07T08:48:39.915Z,2.05
2022-12-07T08:49:29.940Z,2.07
2022-12-07T08:50:19.903Z,2.05
2022-12-07T08:51:09.894Z,2.07
2022-12-07T08:51:59.882Z,2.09
2022-12-07T08:52:49.872Z,2.07
2022-12-07T08:53:39.872Z,2.09
2022-12-07T08:54:29.849Z,2.12
2022-12-07T08:55:19.866Z,2.12
2022-12-07T08:56:09.832Z,2.14
2022-12-07T08:57:00.254Z,2.14
2022-12-07T08:57:49.854Z,2.15
2022-12-07T08:58:39.811Z,2.15
2022-12-07T08:59:29.785Z,2.18
2022-12-07T09:00:19.824Z,2.19
2022-12-07T09:01:11.103Z,2.22
2022-12-07T09:01:59.835Z,2.22
2022-12-07T09:02:49.757Z,2.25
2022-12-07T09:03:39.742Z,2.26
2022-12-07T09:04:29.746Z,2.27
2022-12-07T09:05:19.794Z,2.27
2022-12-07T09:06:09.813Z,2.29
2022-12-07T09:06:59.828Z,2.30
2022-12-07T09:07:49.731Z,2.33
2022-12-07T09:08:39.769Z,2.36
2022-12-07T09:09:29.689Z,2.38
2022-12-07T09:10:19.703Z,2.41
2022-12-07T09:11:09.661Z,2.41
2022-12-07T09:11:59.735Z,2.43
2022-12-07T09:12:49.692Z,2.45
2022-12-07T09:13:39.711Z,2.45
2022-12-07T09:14:29.638Z,2.48
2022-12-07T09:15:19.639Z,2.47
2022-12-07T09:16:09.660Z,2.47
2022-12-07T09:16:59.607Z,2.50
2022-12-07T09:17:49.654Z,2.51
2022-12-07T09:18:39.869Z,2.53
2022-12-07T09:19:29.586Z,2.56
2022-12-07T09:20:24.637Z,2.58
2022-12-07T09:21:10.563Z,2.59
2022-12-07T09:21:59.606Z,2.62
2022-12-07T09:22:49.536Z,2.65
2022-12-07T09:23:39.546Z,2.66
2022-12-07T09:24:29.785Z,2.68
2022-12-07T09:25:19.515Z,2.68
2022-12-07T09:26:11.001Z,2.71
2022-12-07T09:26:59.499Z,2.71
2022-12-07T09:27:49.485Z,2.73
2022-12-07T09:28:39.473Z,2.73
2022-12-07T09:29:29.461Z,2.76
2022-12-07T09:30:19.485Z,2.79
2022-12-07T09:31:26.075Z,2.81
2022-12-07T09:32:00.532Z,2.81
2022-12-07T09:32:49.426Z,2.81
2022-12-07T09:33:39.432Z,2.81
2022-12-07T09:34:29.439Z,2.83
2022-12-07T09:35:19.392Z,2.84
2022-12-07T09:36:09.462Z,2.86
2022-12-07T09:36:59.406Z,2.84
2022-12-07T09:37:49.371Z,2.87
2022-12-07T09:38:39.388Z,2.87
2022-12-07T09:39:29.367Z,2.89
2022-12-07T09:40:19.341Z,2.89
2022-12-07T09:41:09.341Z,2.90
2022-12-07T09:41:59.632Z,2.92
2022-12-07T09:42:49.327Z,2.94
2022-12-07T09:43:39.332Z,2.92
2022-12-07T09:44:29.322Z,2.92
2022-12-07T09:45:19.298Z,2.94
2022-12-07T09:46:09.286Z,2.98
2022-12-07T09:46:59.291Z,2.99
2022-12-07T09:47:49.345Z,3.01
2022-12-07T09:48:39.272Z,3.02
2022-12-07T09:49:29.269Z,3.04
2022-12-07T09:50:19.260Z,3.05
2022-12-07T09:51:09.249Z,3.07
2022-12-07T09:51:59.236Z,3.07
2022-12-07T09:52:49.228Z,3.12
2022-12-07T09:53:39.472Z,3.13
2022-12-07T09:54:29.190Z,3.16
2022-12-07T09:55:19.236Z,3.17
2022-12-07T09:56:09.179Z,3.17
2022-12-07T09:56:59.169Z,3.20
2022-12-07T09:57:49.148Z,3.20
2022-12-07T09:58:39.175Z,3.23
2022-12-07T09:59:33.731Z,3.25
2022-12-07T10:00:20.432Z,3.30
2022-12-07T10:01:09.128Z,3.30
2022-12-07T10:01:59.219Z,3.28
2022-12-07T10:02:49.097Z,3.28
2022-12-07T10:03:39.086Z,3.31
2022-12-07T10:04:29.137Z,3.31
2022-12-07T10:05:23.905Z,3.34
2022-12-07T10:06:10.300Z,3.35
2022-12-07T10:06:59.066Z,3.37
2022-12-07T10:07:49.089Z,3.39
2022-12-07T10:08:39.036Z,3.41
2022-12-07T10:09:29.036Z,3.42
2022-12-07T10:10:19.037Z,3.42
2022-12-07T10:11:09.016Z,3.44
2022-12-07T10:11:59.029Z,3.45
2022-12-07T10:12:48.999Z,3.46
2022-12-07T10:13:38.974Z,3.46
2022-12-07T10:14:44.224Z,3.49
2022-12-07T10:15:20.452Z,3.50
2022-12-07T10:16:08.986Z,3.50
2022-12-07T10:16:59.051Z,3.52
2022-12-07T10:17:48.929Z,3.54
2022-12-07T10:18:38.943Z,3.53
2022-12-07T10:19:28.935Z,3.54
2022-12-07T10:20:18.947Z,3.56
2022-12-07T10:21:08.900Z,3.57
2022-12-07T10:21:58.895Z,3.56
2022-12-07T10:22:48.973Z,3.57
2022-12-07T10:23:38.870Z,3.60
2022-12-07T10:24:28.875Z,3.59
2022-12-07T10:25:18.861Z,3.60
2022-12-07T10:26:08.849Z,3.59
2022-12-07T10:26:58.857Z,3.60
2022-12-07T10:27:48.832Z,3.59
2022-12-07T10:28:42.328Z,3.57
2022-12-07T10:29:28.819Z,3.59
2022-12-07T10:30:18.818Z,3.60
2022-12-07T10:31:08.865Z,3.62
2022-12-07T10:31:58.780Z,3.63
2022-12-07T10:32:48.770Z,3.68
2022-12-07T10:33:38.764Z,3.71
2022-12-07T10:34:28.795Z,3.72
2022-12-07T10:35:19.092Z,3.74
2022-12-07T10:36:08.800Z,3.75
2022-12-07T10:36:58.747Z,3.77
2022-12-07T10:37:48.714Z,3.77
2022-12-07T10:38:38.710Z,3.78
2022-12-07T10:39:28.719Z,3.81
2022-12-07T10:40:18.796Z,3.80
2022-12-07T10:41:08.709Z,3.81
2022-12-07T10:41:58.667Z,3.80
2022-12-07T10:42:48.672Z,3.82
2022-12-07T10:43:38.667Z,3.86
2022-12-07T10:44:28.630Z,3.88
2022-12-07T10:45:18.781Z,3.88
2022-12-07T10:46:13.247Z,3.90
2022-12-07T10:46:59.682Z,3.93
2022-12-07T10:47:48.618Z,3.95
2022-12-07T10:48:38.611Z,3.95
2022-12-07T10:49:28.596Z,3.96
2022-12-07T10:50:18.666Z,3.96
2022-12-07T10:51:08.617Z,3.98
2022-12-07T10:51:58.557Z,3.98
2022-12-07T10:52:49.266Z,3.99
2022-12-07T10:53:38.545Z,4.00
2022-12-07T10:54:28.582Z,4.02
2022-12-07T10:55:18.532Z,4.02
2022-12-07T10:56:08.526Z,4.04
2022-12-07T10:56:58.523Z,4.04
2022-12-07T10:57:48.494Z,4.04
2022-12-07T10:58:38.509Z,4.06
2022-12-07T10:59:28.489Z,4.07
2022-12-07T11:00:18.891Z,4.08
2022-12-07T11:01:08.749Z,4.08
2022-12-07T11:01:58.568Z,4.10
2022-12-07T11:02:48.448Z,4.08
2022-12-07T11:03:38.442Z,4.10
2022-12-07T11:04:28.443Z,4.11
2022-12-07T11:05:18.425Z,4.14